createdAt,value
2022-10-10T00:02:12.007Z,6.13
2022-10-10T00:07:17.150Z,7.22
2022-10-10T00:12:22.242Z,6.47
2022-10-10T00:17:30.024Z,5.68
2022-10-10T00:22:35.123Z,5.90
2022-10-10T00:27:40.669Z,4.85
2022-10-10T00:32:49.026Z,6.20
2022-10-10T00:37:54.465Z,5.55
2022-10-10T00:42:59.899Z,5.53
2022-10-10T00:48:09.393Z,5.60
2022-10-10T00:53:15.602Z,5.27
2022-10-10T00:58:21.141Z,5.00
2022-10-10T01:03:29.082Z,4.35
2022-10-10T01:08:34.362Z,3.92
2022-10-10T01:13:43.926Z,4.63
2022-10-10T01:18:59.172Z,4.50
2022-10-10T01:24:30.263Z,4.57
2022-10-10T01:29:41.804Z,5.90
2022-10-10T01:34:56.416Z,4.28
2022-10-10T01:40:08.211Z,4.03
2022-10-10T01:45:16.008Z,4.95
2022-10-10T01:50:23.267Z,4.10
2022-10-10T01:55:40.174Z,3.50
2022-10-10T02:00:52.074Z,4.28
2022-10-10T02:06:01.355Z,4.45
2022-10-10T02:11:09.160Z,3.80
2022-10-10T02:16:20.079Z,3.83
2022-10-10T02:21:26.090Z,3.67
2022-10-10T02:26:32.060Z,3.58
2022-10-10T02:31:43.105Z,3.95
2022-10-10T02:36:51.114Z,3.65
2022-10-10T02:41:56.781Z,3.65
2022-10-10T02:47:04.775Z,3.83
2022-10-10T02:52:10.293Z,3.80
2022-10-10T02:57:16.638Z,7.47
2022-10-10T03:02:24.433Z,3.95
2022-10-10T03:07:29.771Z,3.90
2022-10-10T03:12:35.064Z,3.58
2022-10-10T03:17:42.926Z,3.95
2022-10-10T03:22:48.326Z,3.53
2022-10-10T03:27:53.743Z,3.90
2022-10-10T03:33:01.577Z,3.63
2022-10-10T03:38:07.338Z,3.90
2022-10-10T03:43:12.584Z,3.88
2022-10-10T03:48:20.411Z,4.07
2022-10-10T03:53:25.709Z,4.22
2022-10-10T03:58:30.877Z,4.32
2022-10-10T04:03:38.647Z,4.30
2022-10-10T04:08:43.920Z,4.50
2022-10-10T04:13:49.114Z,3.58
2022-10-10T04:18:56.862Z,5.32
2022-10-10T04:24:02.065Z,4.47
2022-10-10T04:29:07.512Z,4.38
2022-10-10T04:34:15.261Z,3.88
2022-10-10T04:39:20.358Z,3.80
2022-10-10T04:44:25.467Z,4.47
2022-10-10T04:49:33.162Z,4.88
2022-10-10T04:54:38.336Z,4.38
2022-10-10T04:59:43.896Z,3.92
2022-10-10T05:04:52.076Z,4.18
2022-10-10T05:09:57.232Z,4.55
2022-10-10T05:15:02.336Z,4.78
2022-10-10T05:20:10.921Z,5.25
2022-10-10T05:25:16.077Z,5.45
2022-10-10T05:30:21.979Z,5.22
2022-10-10T05:35:29.743Z,5.70
2022-10-10T05:40:34.800Z,4.43
2022-10-10T05:45:40.133Z,4.20
2022-10-10T05:50:50.625Z,4.30
2022-10-10T05:55:55.925Z,4.38
2022-10-10T06:01:05.926Z,5.28
2022-10-10T06:06:13.938Z,6.32
2022-10-10T06:11:20.767Z,8.27
2022-10-10T06:16:26.342Z,7.65
2022-10-10T06:21:34.028Z,8.38
2022-10-10T06:26:39.148Z,7.07
2022-10-10T06:31:44.298Z,7.80
2022-10-10T06:36:52.584Z,8.00
2022-10-10T06:41:59.316Z,7.53
2022-10-10T06:47:04.546Z,6.40
2022-10-10T06:52:12.346Z,7.75
2022-10-10T06:57:17.364Z,7.80
2022-10-10T07:02:23.377Z,8.52
2022-10-10T07:07:31.158Z,9.75
2022-10-10T07:12:43.526Z,12.25
2022-10-10T07:17:54.273Z,14.63
2022-10-10T07:23:02.183Z,17.52
2022-10-10T07:28:07.727Z,20.00
2022-10-10T07:33:13.158Z,21.08
2022-10-10T07:38:20.870Z,20.90
2022-10-10T07:43:26.096Z,22.85
2022-10-10T07:48:31.153Z,26.38
2022-10-10T07:53:38.903Z,18.83
2022-10-10T07:58:44.029Z,18.35
2022-10-10T08:03:49.399Z,19.77
2022-10-10T08:08:57.232Z,18.77
2022-10-10T08:14:02.327Z,17.58
2022-10-10T08:19:07.630Z,17.90
2022-10-10T08:24:15.582Z,17.95
2022-10-10T08:29:20.823Z,18.38
2022-10-10T08:34:25.884Z,18.48
2022-10-10T08:39:33.753Z,18.25
2022-10-10T08:44:44.035Z,17.35
2022-10-10T08:49:51.914Z,17.92
2022-10-10T08:55:01.720Z,19.27
2022-10-10T09:00:10.027Z,20.63
2022-10-10T09:05:19.056Z,24.38
2022-10-10T09:10:31.379Z,20.15
2022-10-10T09:15:38.976Z,15.57
2022-10-10T09:20:51.475Z,13.88
2022-10-10T09:26:06.356Z,12.45
2022-10-10T09:31:17.555Z,12.27
2022-10-10T09:36:25.642Z,10.67
2022-10-10T09:41:38.057Z,11.25
2022-10-10T09:46:43.232Z,12.07
2022-10-10T09:51:48.994Z,12.02
2022-10-10T09:56:58.461Z,11.75
2022-10-10T10:02:05.323Z,11.55
2022-10-10T10:07:22.261Z,11.95
2022-10-10T10:12:33.364Z,11.27
2022-10-10T10:17:38.405Z,10.70
2022-10-10T10:22:43.948Z,12.02
2022-10-10T10:27:51.987Z,10.38
2022-10-10T10:33:01.733Z,12.30
2022-10-10T10:38:23.666Z,12.63
2022-10-10T10:43:58.305Z,12.63
2022-10-10T10:49:10.324Z,18.05
2022-10-10T10:54:27.579Z,11.25
2022-10-10T11:00:26.381Z,10.52
2022-10-10T11:05:31.115Z,9.70
2022-10-10T11:10:47.777Z,10.07
2022-10-10T11:16:24.459Z,9.52
2022-10-10T11:21:27.007Z,9.70
2022-10-10T11:26:36.324Z,9.02
2022-10-10T11:31:45.771Z,9.45
2022-10-10T11:36:53.493Z,9.10
2022-10-10T11:42:02.871Z,8.90
2022-10-10T11:47:15.321Z,10.27
2022-10-10T11:52:34.025Z,9.13
2022-10-10T11:57:43.929Z,8.93
2022-10-10T12:08:16.795Z,10.70
2022-10-10T12:13:30.692Z,9.07
2022-10-10T12:18:43.897Z,9.73
2022-10-10T12:23:53.957Z,11.35
2022-10-10T12:29:05.356Z,9.32
2022-10-10T12:34:18.699Z,10.23
2022-10-10T12:39:41.357Z,10.30
2022-10-10T12:44:48.300Z,9.15
2022-10-10T12:49:57.692Z,8.50
2022-10-10T12:55:12.039Z,7.90
2022-10-10T13:00:19.508Z,8.57
2022-10-10T13:05:28.906Z,8.90
2022-10-10T13:10:37.068Z,9.55
2022-10-10T13:15:42.469Z,10.48
2022-10-10T13:20:47.727Z,11.25
2022-10-10T13:25:55.667Z,11.90
2022-10-10T13:31:01.281Z,9.13
2022-10-10T13:36:11.443Z,13.55
2022-10-10T13:41:21.055Z,8.30
2022-10-10T13:46:31.833Z,8.73
2022-10-10T13:51:47.090Z,9.10
2022-10-10T13:56:54.727Z,15.05
2022-10-10T14:02:04.523Z,11.73
2022-10-10T14:07:13.948Z,9.60
2022-10-10T14:17:30.565Z,10.57
2022-10-10T14:22:35.756Z,8.00
2022-10-10T14:27:43.818Z,8.38
2022-10-10T14:32:48.992Z,7.63
2022-10-10T14:37:54.017Z,7.57
2022-10-10T14:43:01.913Z,8.00
2022-10-10T14:48:07.792Z,7.45
2022-10-10T14:53:13.309Z,7.55
2022-10-10T14:58:22.607Z,8.15
2022-10-10T15:03:28.054Z,8.10
2022-10-10T15:08:33.468Z,8.00
2022-10-10T15:13:41.984Z,8.07
2022-10-10T15:18:54.010Z,7.15
2022-10-10T15:23:59.735Z,7.18
2022-10-10T15:29:07.468Z,7.85
2022-10-10T15:34:12.533Z,8.18
2022-10-10T15:39:17.611Z,7.53
2022-10-10T15:44:25.492Z,8.02
2022-10-10T15:49:30.609Z,8.65
2022-10-10T15:54:35.850Z,8.88
2022-10-10T15:59:44.400Z,8.05
2022-10-10T16:04:49.910Z,7.63
2022-10-10T16:09:55.125Z,8.70
2022-10-10T16:15:06.914Z,9.15
2022-10-10T16:20:14.190Z,9.73
2022-10-10T16:25:23.336Z,10.30
2022-10-10T16:30:31.272Z,9.63
2022-10-10T16:35:39.182Z,8.70
2022-10-10T16:40:44.214Z,7.97
2022-10-10T16:45:52.034Z,8.65
2022-10-10T16:50:57.087Z,9.18
2022-10-10T16:56:02.370Z,9.05
2022-10-10T17:01:13.418Z,9.30
2022-10-10T17:06:20.562Z,11.63
2022-10-10T17:11:26.373Z,8.55
2022-10-10T17:16:59.961Z,8.52
2022-10-10T17:21:59.597Z,7.35
2022-10-10T17:27:04.664Z,10.10
2022-10-10T17:32:12.480Z,8.65
2022-10-10T17:37:17.726Z,9.48
2022-10-10T17:42:25.142Z,11.02
2022-10-10T17:47:32.951Z,11.45
2022-10-10T17:52:38.036Z,10.00
2022-10-10T17:57:47.037Z,9.98
2022-10-10T18:02:57.003Z,9.93
2022-10-10T18:08:02.038Z,9.23
2022-10-10T18:13:07.412Z,9.13
2022-10-10T18:18:15.070Z,8.60
2022-10-10T18:23:21.305Z,11.52
2022-10-10T18:28:26.513Z,13.15
2022-10-10T18:33:34.311Z,14.30
2022-10-10T18:38:39.534Z,14.43
2022-10-10T18:43:45.058Z,9.60
2022-10-10T18:48:54.293Z,7.50
2022-10-10T18:54:01.996Z,8.15
2022-10-10T18:59:09.704Z,7.93
2022-10-10T19:04:18.388Z,6.50
2022-10-10T19:09:24.380Z,11.63
2022-10-10T19:14:29.443Z,15.30
2022-10-10T19:19:37.315Z,9.60
2022-10-10T19:24:54.339Z,9.05
2022-10-10T19:29:59.601Z,10.38
2022-10-10T19:35:07.663Z,9.90
2022-10-10T19:40:13.893Z,8.73
2022-10-10T19:45:19.038Z,12.05
2022-10-10T19:50:26.896Z,9.30
2022-10-10T19:55:32.307Z,8.70
2022-10-10T20:00:37.761Z,9.13
2022-10-10T20:05:45.579Z,9.48
2022-10-10T20:10:55.249Z,8.65
2022-10-10T20:16:03.901Z,10.93
2022-10-10T20:21:29.414Z,8.13
2022-10-10T20:26:36.002Z,8.02
2022-10-10T20:31:41.643Z,8.63
2022-10-10T20:36:49.415Z,9.15
2022-10-10T20:41:54.610Z,8.85
2022-10-10T20:46:59.699Z,8.65
2022-10-10T20:57:17.688Z,7.90
2022-10-10T21:02:23.175Z,7.25
2022-10-10T21:07:30.897Z,7.60
2022-10-10T21:12:36.071Z,8.02
2022-10-10T21:23:19.589Z,6.75
2022-10-10T21:39:30.609Z,7.45
2022-10-10T21:44:41.002Z,9.15
2022-10-10T21:55:22.775Z,8.85
2022-10-10T22:00:28.166Z,9.00
2022-10-10T22:17:14.525Z,6.85
2022-10-10T22:22:19.813Z,6.82
2022-10-10T22:27:25.087Z,6.68
2022-10-10T22:32:33.003Z,6.55
2022-10-10T22:37:38.324Z,7.18
2022-10-10T22:42:43.483Z,35.30
2022-10-10T22:47:51.523Z,16.08
2022-10-10T22:52:56.757Z,9.68
2022-10-10T22:58:10.748Z,9.85
2022-10-10T23:03:18.606Z,10.38
2022-10-10T23:08:23.822Z,8.43
2022-10-10T23:13:29.084Z,8.38
2022-10-10T23:18:37.012Z,7.30
2022-10-10T23:23:54.217Z,7.72
2022-10-10T23:28:59.480Z,8.85
2022-10-10T23:34:07.408Z,8.25
2022-10-10T23:39:12.668Z,7.45
2022-10-10T23:44:18.054Z,6.65
2022-10-10T23:49:26.023Z,7.15
2022-10-10T23:59:55.951Z,7.47
